createdAt,value
2018-12-24T00:00:32.315Z,10.6
2018-12-24T00:01:21.821Z,10.6
2018-12-24T00:02:11.875Z,10.6
2018-12-24T00:03:02.490Z,10.6
2018-12-24T00:03:52.315Z,10.6
2018-12-24T00:04:41.758Z,10.6
2018-12-24T00:05:32.920Z,10.6
2018-12-24T00:06:21.633Z,10.6
2018-12-24T00:07:11.982Z,10.6
2018-12-24T00:08:02.875Z,10.6
2018-12-24T00:08:52.062Z,10.6
2018-12-24T00:09:42.962Z,10.6
2018-12-24T00:10:33.097Z,10.6
2018-12-24T00:11:22.509Z,10.6
2018-12-24T00:12:15.732Z,10.6
2018-12-24T00:13:03.497Z,10.6
2018-12-24T00:13:52.417Z,10.6
2018-12-24T00:14:42.744Z,10.6
2018-12-24T00:32:48.101Z,10.6
2018-12-24T00:33:37.623Z,10.5
2018-12-24T00:34:26.874Z,10.5
2018-12-24T00:35:17.779Z,10.6
2018-12-24T00:36:08.097Z,10.5
2018-12-24T00:36:57.603Z,10.5
2018-12-24T00:37:48.256Z,10.5
2018-12-24T00:38:36.923Z,10.5
2018-12-24T00:39:28.328Z,10.6
2018-12-24T00:40:18.317Z,10.5
2018-12-24T00:41:08.260Z,10.5
2018-12-24T00:41:58.208Z,10.6
2018-12-24T00:42:48.558Z,10.6
2018-12-24T00:43:38.308Z,10.6
2018-12-24T00:44:28.642Z,10.6
2018-12-24T00:45:18.273Z,10.6
2018-12-24T00:46:08.765Z,10.6
2018-12-24T00:46:58.278Z,10.6
2018-12-24T00:47:49.155Z,10.6
2018-12-24T00:48:38.993Z,10.6
2018-12-24T00:49:28.830Z,10.6
2018-12-24T00:50:19.365Z,10.6
2018-12-24T00:51:08.325Z,10.6
2018-12-24T00:51:57.513Z,10.6
2018-12-24T00:52:49.892Z,10.6
2018-12-24T00:53:38.990Z,10.6
2018-12-24T00:54:29.337Z,10.6
2018-12-24T00:55:17.323Z,10.6
2018-12-24T00:56:08.895Z,10.6
2018-12-24T00:56:59.257Z,10.6
2018-12-24T00:57:49.644Z,10.6
2018-12-24T00:58:39.065Z,10.6
2018-12-24T00:59:29.407Z,10.6
2018-12-24T01:00:19.842Z,10.6
2018-12-24T01:01:10.114Z,10.6
2018-12-24T01:01:59.977Z,10.6
2018-12-24T01:02:49.639Z,10.6
2018-12-24T01:03:40.261Z,10.6
2018-12-24T01:04:29.804Z,10.6
2018-12-24T01:05:19.256Z,10.6
2018-12-24T01:06:10.494Z,10.6
2018-12-24T01:06:59.622Z,10.6
2018-12-24T01:07:49.742Z,10.6
2018-12-24T01:08:40.644Z,10.6
2018-12-24T01:09:30.232Z,10.6
2018-12-24T01:10:20.521Z,10.6
2018-12-24T01:11:09.485Z,10.6
2018-12-24T01:12:01.911Z,10.6
2018-12-24T01:12:50.026Z,10.6
2018-12-24T01:13:39.559Z,10.6
2018-12-24T01:14:30.403Z,10.6
2018-12-24T01:15:21.094Z,10.6
2018-12-24T01:16:10.559Z,10.6
2018-12-24T01:17:00.673Z,10.6
2018-12-24T01:17:50.373Z,10.6
2018-12-24T01:18:40.476Z,10.6
2018-12-24T01:19:30.266Z,10.6
2018-12-24T01:20:21.158Z,10.6
2018-12-24T01:21:10.146Z,10.6
2018-12-24T01:22:01.484Z,10.6
2018-12-24T01:22:50.198Z,10.6
2018-12-24T01:23:40.466Z,10.6
2018-12-24T01:24:30.088Z,10.6
2018-12-24T01:25:21.265Z,10.6
2018-12-24T01:26:11.293Z,10.6
2018-12-24T01:27:00.528Z,10.6
2018-12-24T01:27:51.810Z,10.6
2018-12-24T01:28:40.915Z,10.6
2018-12-24T01:29:30.463Z,10.6
2018-12-24T01:30:21.827Z,10.6
2018-12-24T01:31:11.842Z,10.6
2018-12-24T01:32:01.632Z,10.6
2018-12-24T01:32:51.916Z,10.6
2018-12-24T01:33:41.245Z,10.6
2018-12-24T01:34:31.875Z,10.6
2018-12-24T01:35:21.850Z,10.6
2018-12-24T01:36:12.147Z,10.6
2018-12-24T01:37:03.802Z,10.6
2018-12-24T01:37:52.267Z,10.6
2018-12-24T01:38:42.234Z,10.6
2018-12-24T01:39:32.139Z,10.6
2018-12-24T01:40:22.197Z,10.6
2018-12-24T01:41:11.999Z,10.6
2018-12-24T01:42:01.802Z,10.6
2018-12-24T01:42:52.646Z,10.6
2018-12-24T01:43:41.721Z,10.6
2018-12-24T01:44:32.289Z,10.5
2018-12-24T01:45:22.601Z,10.6
2018-12-24T01:46:12.602Z,10.6
2018-12-24T01:47:02.104Z,10.5
2018-12-24T01:47:52.668Z,10.6
2018-12-24T01:48:42.789Z,10.6
2018-12-24T01:49:32.282Z,10.5
2018-12-24T01:50:22.320Z,10.6
2018-12-24T01:51:12.088Z,10.6
2018-12-24T01:52:03.000Z,10.6
2018-12-24T01:52:53.595Z,10.6
2018-12-24T01:53:43.728Z,10.5
2018-12-24T01:54:32.355Z,10.6
2018-12-24T01:55:22.976Z,10.6
2018-12-24T01:56:12.512Z,10.6
2018-12-24T01:57:02.819Z,10.6
2018-12-24T01:57:52.815Z,10.6
2018-12-24T01:58:42.942Z,10.6
2018-12-24T01:59:33.423Z,10.6
2018-12-24T02:00:23.933Z,10.6
2018-12-24T02:01:13.875Z,10.6
2018-12-24T02:02:03.757Z,10.6
2018-12-24T02:02:53.732Z,10.6
2018-12-24T02:03:44.835Z,10.6
2018-12-24T02:04:33.564Z,10.6
2018-12-24T02:05:23.078Z,10.6
2018-12-24T02:06:13.385Z,10.6
2018-12-24T02:07:04.297Z,10.6
2018-12-24T02:07:54.742Z,10.6
2018-12-24T02:08:44.748Z,10.6
2018-12-24T02:09:34.164Z,10.6
2018-12-24T02:10:23.965Z,10.6
2018-12-24T02:11:13.422Z,10.6
2018-12-24T02:12:05.302Z,10.6
2018-12-24T02:12:54.127Z,10.6
2018-12-24T02:13:44.194Z,10.6
2018-12-24T02:14:34.677Z,10.6
2018-12-24T02:15:24.607Z,10.6
2018-12-24T02:16:15.169Z,10.6
2018-12-24T02:17:04.777Z,10.6
2018-12-24T02:17:54.027Z,10.6
2018-12-24T02:18:44.492Z,10.5
2018-12-24T02:19:35.479Z,10.6
2018-12-24T02:20:23.912Z,10.5
2018-12-24T02:21:14.486Z,10.6
2018-12-24T02:22:14.279Z,10.6
2018-12-24T02:22:54.932Z,10.5
2018-12-24T02:23:45.150Z,10.5
2018-12-24T02:24:35.559Z,10.6
2018-12-24T02:25:24.731Z,10.5
2018-12-24T02:26:15.909Z,10.6
2018-12-24T02:27:04.816Z,10.6
2018-12-24T02:27:55.669Z,10.6
2018-12-24T02:28:45.774Z,10.5
2018-12-24T02:29:35.816Z,10.5
2018-12-24T02:30:26.400Z,10.6
2018-12-24T02:31:15.859Z,10.6
2018-12-24T02:32:06.189Z,10.6
2018-12-24T02:32:55.888Z,10.6
2018-12-24T02:33:46.184Z,10.5
2018-12-24T02:34:35.091Z,10.6
2018-12-24T02:35:26.173Z,10.6
2018-12-24T02:36:16.618Z,10.6
2018-12-24T02:37:06.155Z,10.6
2018-12-24T02:37:56.143Z,10.5
2018-12-24T02:38:45.748Z,10.5
2018-12-24T02:39:36.697Z,10.5
2018-12-24T02:40:26.644Z,10.5
2018-12-24T02:41:17.169Z,10.5
2018-12-24T02:42:06.618Z,10.5
2018-12-24T02:43:00.110Z,10.6
2018-12-24T02:43:46.031Z,10.6
2018-12-24T02:44:36.986Z,10.6
2018-12-24T02:45:26.158Z,10.6
2018-12-24T02:46:16.525Z,10.5
2018-12-24T02:47:07.111Z,10.5
2018-12-24T02:47:57.265Z,10.5
2018-12-24T02:48:46.637Z,10.5
2018-12-24T02:49:37.290Z,10.5
2018-12-24T02:50:27.612Z,10.5
2018-12-24T02:51:17.093Z,10.6
2018-12-24T02:52:07.062Z,10.6
2018-12-24T02:52:57.172Z,10.5
2018-12-24T02:53:47.668Z,10.5
2018-12-24T02:54:37.887Z,10.6
2018-12-24T02:55:27.370Z,10.6
2018-12-24T02:56:17.160Z,10.6
2018-12-24T02:57:07.387Z,10.6
2018-12-24T02:57:57.502Z,10.6
2018-12-24T02:58:47.899Z,10.6
2018-12-24T02:59:36.890Z,10.6
2018-12-24T03:00:28.149Z,10.6
2018-12-24T03:01:18.139Z,10.5
2018-12-24T03:02:07.633Z,10.5
2018-12-24T03:02:58.201Z,10.6
2018-12-24T03:03:47.202Z,10.6
2018-12-24T03:04:37.754Z,10.5
2018-12-24T03:05:27.549Z,10.5
2018-12-24T03:06:17.510Z,10.5
2018-12-24T03:07:07.489Z,10.5
2018-12-24T03:07:58.262Z,10.5
2018-12-24T03:08:48.982Z,10.5
2018-12-24T03:09:38.575Z,10.5
2018-12-24T03:10:28.032Z,10.5
2018-12-24T03:11:17.908Z,10.5
2018-12-24T03:12:08.324Z,10.5
2018-12-24T03:13:09.831Z,10.5
2018-12-24T03:13:47.588Z,10.5
2018-12-24T03:14:39.349Z,10.5
2018-12-24T03:15:29.279Z,10.6
2018-12-24T03:16:19.159Z,10.5
2018-12-24T03:17:08.711Z,10.5
2018-12-24T03:17:58.576Z,10.5
2018-12-24T03:18:48.948Z,10.5
2018-12-24T03:19:38.846Z,10.5
2018-12-24T03:20:28.643Z,10.5
2018-12-24T03:21:18.496Z,10.5
2018-12-24T03:22:08.221Z,10.5
2018-12-24T03:22:58.321Z,10.5
2018-12-24T03:23:48.888Z,10.5
2018-12-24T03:24:39.176Z,10.5
2018-12-24T03:25:28.947Z,10.5
2018-12-24T03:26:19.060Z,10.5
2018-12-24T03:27:08.609Z,10.6
2018-12-24T03:27:59.148Z,10.5
2018-12-24T03:28:50.492Z,10.5
2018-12-24T03:29:39.740Z,10.5
2018-12-24T03:30:30.673Z,10.5
2018-12-24T03:31:20.241Z,10.5
2018-12-24T03:32:09.786Z,10.5
2018-12-24T03:32:59.882Z,10.5
2018-12-24T03:33:50.000Z,10.5
2018-12-24T03:34:40.151Z,10.5
2018-12-24T03:35:30.185Z,10.5
2018-12-24T03:36:20.185Z,10.5
2018-12-24T03:37:10.595Z,10.5
2018-12-24T03:38:00.511Z,10.6
2018-12-24T03:38:50.970Z,10.5
2018-12-24T03:39:40.208Z,10.5
2018-12-24T03:40:30.832Z,10.5
2018-12-24T03:41:20.179Z,10.5
2018-12-24T03:42:09.725Z,10.5
2018-12-24T03:43:00.627Z,10.5
2018-12-24T03:43:50.532Z,10.5
2018-12-24T03:44:40.965Z,10.6
2018-12-24T03:45:31.079Z,10.5
2018-12-24T03:46:21.092Z,10.5
2018-12-24T03:47:10.957Z,10.6
2018-12-24T03:48:01.256Z,10.5
2018-12-24T03:48:49.847Z,10.5
2018-12-24T03:49:40.904Z,10.5
2018-12-24T03:50:30.519Z,10.5
2018-12-24T03:51:21.216Z,10.5
2018-12-24T03:52:11.949Z,10.5
2018-12-24T03:53:01.091Z,10.5
2018-12-24T03:53:51.356Z,10.5
2018-12-24T03:54:41.397Z,10.5
2018-12-24T03:55:31.479Z,10.5
2018-12-24T03:56:21.225Z,10.5
2018-12-24T03:57:11.849Z,10.5
2018-12-24T03:58:01.932Z,10.5
2018-12-24T03:58:51.678Z,10.5
2018-12-24T03:59:41.989Z,10.5
2018-12-24T04:00:32.378Z,10.5
2018-12-24T04:01:21.916Z,10.5
2018-12-24T04:02:11.401Z,10.5
2018-12-24T04:03:01.672Z,10.5
2018-12-24T04:03:52.477Z,10.5
2018-12-24T04:04:41.634Z,10.5
2018-12-24T04:05:31.572Z,10.5
2018-12-24T04:06:22.226Z,10.5
2018-12-24T04:07:12.233Z,10.5
2018-12-24T04:08:01.600Z,10.5
2018-12-24T04:08:52.347Z,10.5
2018-12-24T04:09:42.942Z,10.5
2018-12-24T04:10:32.460Z,10.5
2018-12-24T04:11:25.236Z,10.5
2018-12-24T04:12:12.723Z,10.5
2018-12-24T04:13:03.290Z,10.6
2018-12-24T04:13:52.695Z,10.5
2018-12-24T04:14:42.380Z,10.5
2018-12-24T04:15:32.875Z,10.5
2018-12-24T04:16:22.941Z,10.5
2018-12-24T04:17:11.949Z,10.5
2018-12-24T04:18:03.065Z,10.5
2018-12-24T04:18:52.297Z,10.5
2018-12-24T04:19:41.821Z,10.5
2018-12-24T04:20:32.377Z,10.5
2018-12-24T04:21:25.507Z,10.5
2018-12-24T04:22:13.340Z,10.5
2018-12-24T04:23:02.882Z,10.5
2018-12-24T04:23:53.079Z,10.5
2018-12-24T04:24:43.279Z,10.5
2018-12-24T04:25:33.957Z,10.5
2018-12-24T04:26:23.639Z,10.5
2018-12-24T04:27:12.802Z,10.5
2018-12-24T04:28:03.109Z,10.5
2018-12-24T04:28:53.707Z,10.5
2018-12-24T04:29:43.765Z,10.5
2018-12-24T04:30:35.579Z,10.5
2018-12-24T04:31:23.751Z,10.5
2018-12-24T04:32:14.029Z,10.5
2018-12-24T04:33:03.497Z,10.5
2018-12-24T04:33:54.415Z,10.5
2018-12-24T04:34:44.436Z,10.5
2018-12-24T04:35:34.813Z,10.5
2018-12-24T04:36:23.937Z,10.5
2018-12-24T04:37:13.274Z,10.5
2018-12-24T04:38:04.517Z,10.5
2018-12-24T04:38:54.997Z,10.5
2018-12-24T04:39:44.462Z,10.5
2018-12-24T04:40:34.561Z,10.5
2018-12-24T04:41:25.161Z,10.5
2018-12-24T04:42:14.061Z,10.5
2018-12-24T04:43:04.141Z,10.6
2018-12-24T04:43:54.796Z,10.5
2018-12-24T04:44:45.388Z,10.5
2018-12-24T05:02:04.887Z,10.4
2018-12-24T05:02:54.648Z,10.4
2018-12-24T05:03:45.010Z,10.4
2018-12-24T05:04:33.740Z,10.4
2018-12-24T05:05:24.090Z,10.4
2018-12-24T05:06:14.767Z,10.4
2018-12-24T05:07:05.409Z,10.4
2018-12-24T05:07:54.699Z,10.4
2018-12-24T05:08:45.217Z,10.4
2018-12-24T05:09:34.456Z,10.4
2018-12-24T05:10:24.894Z,10.4
2018-12-24T05:11:15.462Z,10.4
2018-12-24T05:12:06.101Z,10.4
2018-12-24T05:12:56.304Z,10.4
2018-12-24T05:13:48.612Z,10.4
2018-12-24T05:14:36.281Z,10.4
2018-12-24T05:15:26.056Z,10.4
2018-12-24T05:16:15.790Z,10.4
2018-12-24T05:17:06.638Z,10.4
2018-12-24T05:17:55.294Z,10.4
2018-12-24T05:18:45.898Z,10.5
2018-12-24T05:19:35.951Z,10.5
2018-12-24T05:20:26.010Z,10.4
2018-12-24T05:21:16.629Z,10.5
2018-12-24T05:22:06.870Z,10.4
2018-12-24T05:22:56.438Z,10.4
2018-12-24T05:23:46.513Z,10.4
2018-12-24T05:24:36.828Z,10.4
2018-12-24T05:25:25.630Z,10.4
2018-12-24T05:26:16.958Z,10.4
2018-12-24T05:27:07.591Z,10.4
2018-12-24T05:27:56.246Z,10.5
2018-12-24T05:28:47.278Z,10.4
2018-12-24T05:29:36.918Z,10.5
2018-12-24T05:30:27.233Z,10.4
2018-12-24T05:31:17.065Z,10.4
2018-12-24T05:32:07.046Z,10.4
2018-12-24T05:32:56.893Z,10.4
2018-12-24T05:33:47.516Z,10.4
2018-12-24T05:34:37.006Z,10.4
2018-12-24T05:35:26.488Z,10.4
2018-12-24T05:36:16.373Z,10.4
2018-12-24T05:37:07.685Z,10.5
2018-12-24T05:37:57.725Z,10.4
2018-12-24T05:38:47.263Z,10.4
2018-12-24T05:39:37.030Z,10.4
2018-12-24T05:40:26.870Z,10.4
2018-12-24T05:41:17.677Z,10.4
2018-12-24T05:42:07.258Z,10.4
2018-12-24T05:42:57.307Z,10.4
2018-12-24T05:43:55.942Z,10.4
2018-12-24T05:44:37.803Z,10.4
2018-12-24T05:45:28.022Z,10.4
2018-12-24T05:46:17.245Z,10.4
2018-12-24T05:47:07.332Z,10.4
2018-12-24T05:47:58.445Z,10.4
2018-12-24T05:48:48.595Z,10.4
2018-12-24T05:49:38.103Z,10.4
2018-12-24T05:50:29.207Z,10.4
2018-12-24T05:51:17.542Z,10.4
2018-12-24T05:52:08.462Z,10.4
2018-12-24T05:52:58.622Z,10.4
2018-12-24T05:53:48.552Z,10.4
2018-12-24T05:54:38.349Z,10.5
2018-12-24T05:55:29.222Z,10.5
2018-12-24T05:56:18.998Z,10.4
2018-12-24T05:57:09.345Z,10.4
2018-12-24T05:57:58.867Z,10.4
2018-12-24T05:58:49.166Z,10.4
2018-12-24T05:59:38.389Z,10.4
2018-12-24T06:00:29.587Z,10.4
2018-12-24T06:01:19.047Z,10.4
2018-12-24T06:02:09.409Z,10.4
2018-12-24T06:02:59.861Z,10.4
2018-12-24T06:03:49.769Z,10.4
2018-12-24T06:04:39.394Z,10.4
2018-12-24T06:05:29.080Z,10.4
2018-12-24T06:06:19.397Z,10.4
2018-12-24T06:07:09.511Z,10.4
2018-12-24T06:07:59.243Z,10.4
2018-12-24T06:08:49.276Z,10.4
2018-12-24T06:09:39.044Z,10.4
2018-12-24T06:10:28.971Z,10.4
2018-12-24T06:11:19.716Z,10.4
2018-12-24T06:12:09.795Z,10.4
2018-12-24T06:13:00.077Z,10.4
2018-12-24T06:13:58.894Z,10.4
2018-12-24T06:14:40.502Z,10.4
2018-12-24T06:15:29.541Z,10.4
2018-12-24T06:16:19.153Z,10.4
2018-12-24T06:17:09.371Z,10.4
2018-12-24T06:18:02.596Z,10.4
2018-12-24T06:18:50.493Z,10.4
2018-12-24T06:19:40.651Z,10.4
2018-12-24T06:20:38.480Z,10.4
2018-12-24T06:21:19.575Z,10.4
2018-12-24T06:22:10.465Z,10.4
2018-12-24T06:23:01.145Z,10.4
2018-12-24T06:23:50.913Z,10.4
2018-12-24T06:24:39.800Z,10.4
2018-12-24T06:25:31.082Z,10.4
2018-12-24T06:26:20.468Z,10.5
2018-12-24T06:27:11.190Z,10.4
2018-12-24T06:28:00.438Z,10.4
2018-12-24T06:28:51.002Z,10.4
2018-12-24T06:29:41.238Z,10.4
2018-12-24T06:30:31.438Z,10.4
2018-12-24T06:31:20.357Z,10.4
2018-12-24T06:32:10.623Z,10.4
2018-12-24T06:33:01.483Z,10.4
2018-12-24T06:33:51.110Z,10.4
2018-12-24T06:34:40.000Z,10.4
2018-12-24T06:35:31.907Z,10.4
2018-12-24T06:36:21.243Z,10.4
2018-12-24T06:37:11.305Z,10.4
2018-12-24T06:38:02.089Z,10.4
2018-12-24T06:38:52.185Z,10.4
2018-12-24T06:39:41.639Z,10.4
2018-12-24T06:40:30.612Z,10.4
2018-12-24T06:41:21.752Z,10.4
2018-12-24T06:42:11.490Z,10.4
2018-12-24T06:43:01.425Z,10.4
2018-12-24T06:43:52.987Z,10.4
2018-12-24T06:44:42.092Z,10.4
2018-12-24T06:45:32.146Z,10.4
2018-12-24T06:46:20.964Z,10.4
2018-12-24T06:47:11.214Z,10.4
2018-12-24T06:48:01.480Z,10.4
2018-12-24T06:48:51.561Z,10.4
2018-12-24T06:49:42.139Z,10.4
2018-12-24T06:50:32.661Z,10.4
2018-12-24T06:51:22.913Z,10.4
2018-12-24T06:52:12.464Z,10.5
2018-12-24T06:53:02.254Z,10.4
2018-12-24T06:53:51.797Z,10.4
2018-12-24T06:54:42.096Z,10.4
2018-12-24T06:55:32.536Z,10.4
2018-12-24T06:56:22.774Z,10.4
2018-12-24T06:57:12.271Z,10.4
2018-12-24T06:58:02.609Z,10.4
2018-12-24T06:58:53.655Z,10.4
2018-12-24T06:59:43.934Z,10.4
2018-12-24T07:00:33.092Z,10.5
2018-12-24T07:01:22.679Z,10.4
2018-12-24T07:02:13.168Z,10.4
2018-12-24T07:03:02.686Z,10.4
2018-12-24T07:03:52.962Z,10.4
2018-12-24T07:04:43.424Z,10.5
2018-12-24T07:05:34.003Z,10.4
2018-12-24T07:06:23.297Z,10.5
2018-12-24T07:07:13.326Z,10.4
2018-12-24T07:08:03.589Z,10.5
2018-12-24T07:08:54.379Z,10.5
2018-12-24T07:09:44.021Z,10.5
2018-12-24T07:10:34.356Z,10.5
2018-12-24T07:11:23.614Z,10.4
2018-12-24T07:12:13.566Z,10.5
2018-12-24T07:13:03.075Z,10.5
2018-12-24T07:13:53.443Z,10.5
2018-12-24T07:14:44.252Z,10.5
2018-12-24T07:15:34.341Z,10.5
2018-12-24T07:16:24.109Z,10.5
2018-12-24T07:17:14.723Z,10.5
2018-12-24T07:18:03.801Z,10.5
2018-12-24T07:18:54.478Z,10.5
2018-12-24T07:19:44.374Z,10.5
2018-12-24T07:20:33.321Z,10.5
2018-12-24T07:21:24.476Z,10.5
2018-12-24T07:22:13.976Z,10.5
2018-12-24T07:23:04.374Z,10.5
2018-12-24T07:23:54.606Z,10.6
2018-12-24T07:24:44.983Z,10.5
2018-12-24T07:25:34.186Z,10.6
2018-12-24T07:26:24.991Z,10.5
2018-12-24T07:27:15.135Z,10.6
2018-12-24T07:28:05.698Z,10.6
2018-12-24T07:29:02.468Z,10.6
2018-12-24T07:29:44.173Z,10.5
2018-12-24T07:30:34.808Z,10.5
2018-12-24T07:31:25.908Z,10.6
2018-12-24T07:32:15.243Z,10.6
2018-12-24T07:33:05.728Z,10.6
2018-12-24T07:33:55.590Z,10.6
2018-12-24T07:34:45.305Z,10.6
2018-12-24T07:35:35.825Z,10.6
2018-12-24T07:36:25.588Z,10.6
2018-12-24T07:37:16.081Z,10.6
2018-12-24T07:38:07.378Z,10.6
2018-12-24T07:38:55.132Z,10.6
2018-12-24T07:39:45.955Z,10.6
2018-12-24T07:40:35.848Z,10.6
2018-12-24T07:41:25.512Z,10.6
2018-12-24T07:42:16.135Z,10.6
2018-12-24T07:43:05.780Z,10.6
2018-12-24T07:43:56.272Z,10.6
2018-12-24T07:44:46.291Z,10.6
2018-12-24T07:45:36.402Z,10.6
2018-12-24T07:46:26.217Z,10.6
2018-12-24T07:47:16.214Z,10.6
2018-12-24T07:48:06.139Z,10.6
2018-12-24T07:48:56.604Z,10.6
2018-12-24T07:49:46.367Z,10.6
2018-12-24T07:50:37.026Z,10.6
2018-12-24T07:51:25.569Z,10.6
2018-12-24T07:52:15.264Z,10.6
2018-12-24T07:53:06.247Z,10.6
2018-12-24T07:53:56.671Z,10.6
2018-12-24T07:54:46.974Z,10.6
2018-12-24T07:55:36.853Z,10.6
2018-12-24T07:56:26.849Z,10.6
2018-12-24T07:57:17.173Z,10.6
2018-12-24T07:58:06.951Z,10.6
2018-12-24T07:58:57.648Z,10.6
2018-12-24T07:59:47.053Z,10.6
2018-12-24T08:00:36.855Z,10.6
2018-12-24T08:01:27.265Z,10.6
2018-12-24T08:02:17.506Z,10.6
2018-12-24T08:03:07.308Z,10.6
2018-12-24T08:03:57.178Z,10.6
2018-12-24T08:04:46.935Z,10.6
2018-12-24T08:05:37.455Z,10.6
2018-12-24T08:06:27.858Z,10.6
2018-12-24T08:07:17.600Z,10.6
2018-12-24T08:08:06.318Z,10.6
2018-12-24T08:08:57.684Z,10.6
2018-12-24T08:09:46.780Z,10.6
2018-12-24T08:10:38.072Z,10.6
2018-12-24T08:11:27.592Z,10.6
2018-12-24T08:12:19.770Z,10.6
2018-12-24T08:13:08.566Z,10.6
2018-12-24T08:13:58.320Z,10.6
2018-12-24T08:14:48.410Z,10.6
2018-12-24T08:15:37.587Z,10.6
2018-12-24T08:16:28.505Z,10.6
2018-12-24T08:17:17.420Z,10.6
2018-12-24T08:18:08.688Z,10.6
2018-12-24T08:18:58.412Z,10.6
2018-12-24T08:19:47.011Z,10.6
2018-12-24T08:20:38.797Z,10.6
2018-12-24T08:21:27.977Z,10.6
2018-12-24T08:22:18.652Z,10.6
2018-12-24T08:23:08.099Z,10.6
2018-12-24T08:23:58.404Z,10.6
2018-12-24T08:24:48.294Z,10.6
2018-12-24T08:25:38.897Z,10.6
2018-12-24T08:26:28.896Z,10.6
2018-12-24T08:27:18.681Z,10.6
2018-12-24T08:28:08.991Z,10.7
2018-12-24T08:28:59.321Z,10.6
2018-12-24T08:29:49.404Z,10.6
2018-12-24T08:30:38.366Z,10.6
2018-12-24T08:31:28.959Z,10.6
2018-12-24T08:32:19.520Z,10.7
2018-12-24T08:33:08.784Z,10.7
2018-12-24T08:33:59.011Z,10.7
2018-12-24T08:34:49.486Z,10.7
2018-12-24T08:35:40.166Z,10.7
2018-12-24T08:36:28.538Z,10.7
2018-12-24T08:37:19.202Z,10.7
2018-12-24T08:38:09.231Z,10.7
2018-12-24T08:38:59.703Z,10.7
2018-12-24T08:39:49.787Z,10.7
2018-12-24T08:40:40.083Z,10.8
2018-12-24T08:41:29.600Z,10.7
2018-12-24T08:42:19.773Z,10.7
2018-12-24T08:43:09.460Z,10.7
2018-12-24T08:43:58.943Z,10.7
2018-12-24T08:44:50.333Z,10.8
2018-12-24T08:45:39.913Z,10.7
2018-12-24T08:46:30.028Z,10.8
2018-12-24T08:47:20.945Z,10.8
2018-12-24T08:48:09.943Z,10.7
2018-12-24T08:49:00.389Z,10.8
2018-12-24T08:49:49.906Z,10.8
2018-12-24T08:50:39.949Z,10.8
2018-12-24T08:51:30.941Z,10.8
2018-12-24T08:52:20.916Z,10.8
2018-12-24T08:53:10.446Z,10.8
2018-12-24T08:54:00.470Z,10.8
2018-12-24T08:54:50.533Z,10.8
2018-12-24T08:55:41.171Z,10.8
2018-12-24T08:56:33.287Z,10.8
2018-12-24T08:57:21.819Z,10.8
2018-12-24T08:58:11.291Z,10.8
2018-12-24T08:59:01.087Z,10.8
2018-12-24T08:59:50.864Z,10.8
2018-12-24T09:00:41.486Z,10.8
2018-12-24T09:16:32.930Z,10.8
2018-12-24T09:17:23.035Z,10.8
2018-12-24T09:18:13.656Z,10.9
2018-12-24T09:19:02.863Z,10.9
2018-12-24T09:19:52.650Z,10.9
2018-12-24T09:20:42.998Z,10.9
2018-12-24T09:21:33.641Z,10.9
2018-12-24T09:22:23.113Z,10.9
2018-12-24T09:23:13.418Z,10.9
2018-12-24T09:24:03.980Z,10.9
2018-12-24T09:24:52.970Z,10.9
2018-12-24T09:25:43.300Z,10.9
2018-12-24T09:26:33.644Z,10.9
2018-12-24T09:27:23.685Z,10.9
2018-12-24T09:28:13.197Z,10.9
2018-12-24T09:29:04.545Z,10.9
2018-12-24T09:29:53.691Z,10.9
2018-12-24T09:30:44.575Z,10.9
2018-12-24T09:31:34.377Z,10.9
2018-12-24T09:32:23.515Z,10.9
2018-12-24T09:33:13.884Z,10.9
2018-12-24T09:34:03.319Z,10.9
2018-12-24T09:34:53.366Z,10.9
2018-12-24T09:35:44.110Z,11
2018-12-24T09:36:34.116Z,11
2018-12-24T09:37:24.662Z,11
2018-12-24T09:38:15.119Z,10.9
2018-12-24T09:39:04.214Z,10.9
2018-12-24T09:39:53.989Z,11
2018-12-24T09:40:44.048Z,11
2018-12-24T09:41:35.055Z,10.9
2018-12-24T09:42:25.590Z,11
2018-12-24T09:43:14.778Z,11
2018-12-24T09:44:04.873Z,11
2018-12-24T09:45:03.698Z,11
2018-12-24T09:45:44.195Z,11
2018-12-24T09:46:35.030Z,11
2018-12-24T09:47:24.875Z,11
2018-12-24T09:48:15.207Z,11
2018-12-24T09:49:03.889Z,11.1
2018-12-24T09:49:54.683Z,11
2018-12-24T09:50:45.282Z,11
2018-12-24T09:51:35.681Z,11
2018-12-24T09:52:25.312Z,11
2018-12-24T09:53:16.155Z,11
2018-12-24T09:54:05.795Z,11
2018-12-24T09:54:54.774Z,11
2018-12-24T09:55:45.685Z,11
2018-12-24T09:56:35.484Z,11
2018-12-24T09:57:26.317Z,11
2018-12-24T09:58:15.904Z,11
2018-12-24T09:59:06.154Z,11
2018-12-24T09:59:56.024Z,11
2018-12-24T10:00:46.028Z,11
2018-12-24T10:01:35.924Z,11
2018-12-24T10:02:25.379Z,11
2018-12-24T10:03:16.534Z,11
2018-12-24T10:04:11.019Z,11
2018-12-24T10:04:55.783Z,11
2018-12-24T10:05:46.907Z,11
2018-12-24T10:06:36.378Z,11
2018-12-24T10:07:25.607Z,11
2018-12-24T10:08:15.279Z,11
2018-12-24T10:09:06.544Z,11
2018-12-24T10:09:56.324Z,11
2018-12-24T10:10:47.018Z,11
2018-12-24T10:11:36.242Z,11
2018-12-24T10:12:27.029Z,11
2018-12-24T10:13:16.808Z,11
2018-12-24T10:14:07.508Z,11.1
2018-12-24T10:14:57.291Z,11
2018-12-24T10:15:49.231Z,11
2018-12-24T10:16:37.066Z,11
2018-12-24T10:17:26.912Z,11
2018-12-24T10:18:17.186Z,11
2018-12-24T10:19:07.223Z,11.1
2018-12-24T10:19:57.630Z,11
2018-12-24T10:20:47.085Z,11
2018-12-24T10:21:38.043Z,11
2018-12-24T10:22:27.715Z,11
2018-12-24T10:23:17.904Z,11
2018-12-24T10:24:07.610Z,11
2018-12-24T10:24:56.518Z,11
2018-12-24T10:25:48.218Z,11
2018-12-24T10:26:37.530Z,11
2018-12-24T10:27:28.110Z,11
2018-12-24T10:28:17.657Z,10.9
2018-12-24T10:29:07.453Z,11
2018-12-24T10:29:57.700Z,11
2018-12-24T10:30:47.423Z,11
2018-12-24T10:31:38.360Z,11
2018-12-24T10:32:27.381Z,11
2018-12-24T10:33:19.502Z,11
2018-12-24T10:34:08.234Z,11
2018-12-24T10:34:57.592Z,11
2018-12-24T10:35:48.452Z,11
2018-12-24T10:36:38.258Z,11
2018-12-24T10:37:28.247Z,11
2018-12-24T10:38:19.237Z,11
2018-12-24T10:39:08.849Z,11
2018-12-24T10:39:58.154Z,11
2018-12-24T10:40:48.399Z,11
2018-12-24T10:41:38.619Z,11.1
2018-12-24T10:42:29.101Z,11
2018-12-24T10:43:18.699Z,11.1
2018-12-24T10:44:08.357Z,11.1
2018-12-24T10:44:59.269Z,11.1
2018-12-24T10:45:48.759Z,11
2018-12-24T10:46:38.345Z,11.1
2018-12-24T10:47:28.296Z,11.1
2018-12-24T10:48:19.878Z,11.1
2018-12-24T10:49:09.581Z,11
2018-12-24T10:49:58.804Z,11
2018-12-24T10:50:49.624Z,11.1
2018-12-24T10:51:38.866Z,11
2018-12-24T10:52:29.486Z,11.1
2018-12-24T10:53:18.138Z,11.1
2018-12-24T10:54:08.551Z,11.1
2018-12-24T10:54:58.591Z,11.1
2018-12-24T10:55:49.745Z,11.1
2018-12-24T10:56:41.444Z,11.1
2018-12-24T10:57:29.674Z,11.1
2018-12-24T10:58:19.908Z,11.1
2018-12-24T10:59:10.158Z,11.1
2018-12-24T10:59:59.780Z,11.1
2018-12-24T11:00:48.463Z,11.1
2018-12-24T11:01:39.895Z,11.1
2018-12-24T11:02:30.328Z,11.1
2018-12-24T11:03:19.730Z,11.1
2018-12-24T11:04:10.108Z,11.1
2018-12-24T11:05:00.091Z,11.1
2018-12-24T11:05:49.897Z,11.1
2018-12-24T11:06:40.050Z,11.1
2018-12-24T11:07:30.021Z,11.1
2018-12-24T11:08:19.741Z,11.2
2018-12-24T11:09:09.098Z,11.2
2018-12-24T11:10:00.489Z,11.2
2018-12-24T11:10:52.780Z,11.2
2018-12-24T11:11:40.005Z,11.2
2018-12-24T11:12:30.447Z,11.2
2018-12-24T11:13:20.743Z,11.2
2018-12-24T11:14:10.785Z,11.2
2018-12-24T11:14:59.925Z,11.2
2018-12-24T11:15:50.678Z,11.2
2018-12-24T11:16:40.627Z,11.2
2018-12-24T11:17:31.233Z,11.3
2018-12-24T11:18:20.277Z,11.3
2018-12-24T11:19:11.089Z,11.3
2018-12-24T11:20:02.292Z,11.3
2018-12-24T11:20:49.954Z,11.3
2018-12-24T11:21:39.672Z,11.3
2018-12-24T11:22:29.796Z,11.2
2018-12-24T11:23:21.029Z,11.3
2018-12-24T11:24:10.471Z,11.3
2018-12-24T11:25:01.312Z,11.3
2018-12-24T11:25:50.206Z,11.3
2018-12-24T11:26:40.814Z,11.3
2018-12-24T11:27:30.896Z,11.3
2018-12-24T11:28:21.791Z,11.3
2018-12-24T11:29:11.755Z,11.3
2018-12-24T11:30:02.576Z,11.3
2018-12-24T11:30:51.034Z,11.3
2018-12-24T11:31:41.936Z,11.2
2018-12-24T11:32:30.984Z,11.3
2018-12-24T11:33:22.443Z,11.3
2018-12-24T11:34:11.553Z,11.2
2018-12-24T11:35:02.055Z,11.2
2018-12-24T11:35:51.960Z,11.3
2018-12-24T11:36:42.008Z,11.3
2018-12-24T11:37:32.541Z,11.3
2018-12-24T11:38:22.361Z,11.2
2018-12-24T11:39:12.145Z,11.2
2018-12-24T11:40:01.860Z,11.3
2018-12-24T11:40:52.535Z,11.3
2018-12-24T11:41:42.610Z,11.2
2018-12-24T11:42:34.533Z,11.2
2018-12-24T11:43:22.001Z,11.2
2018-12-24T11:44:12.433Z,11.2
2018-12-24T11:45:02.285Z,11.2
2018-12-24T11:45:51.555Z,11.2
2018-12-24T11:46:43.182Z,11.2
2018-12-24T11:47:33.843Z,11.2
2018-12-24T11:48:22.612Z,11.2
2018-12-24T11:49:12.808Z,11.2
2018-12-24T11:50:03.188Z,11.2
2018-12-24T11:50:53.245Z,11.2
2018-12-24T11:51:42.945Z,11.2
2018-12-24T11:52:32.618Z,11.2
2018-12-24T11:53:23.975Z,11.2
2018-12-24T11:54:13.707Z,11.2
2018-12-24T11:55:04.040Z,11.2
2018-12-24T11:55:53.873Z,11.2
2018-12-24T11:56:43.364Z,11.2
2018-12-24T11:57:34.025Z,11.2
2018-12-24T11:58:24.994Z,11.1
2018-12-24T11:59:13.627Z,11.2